sensor_id;sensor_type;location;lat;lon;timestamp;temperature;humidity
57566;DHT22;63999;43.882;-0.310;2023-03-01T00:01:28;5.00;61.10
57566;DHT22;63999;43.882;-0.310;2023-03-01T00:03:54;5.00;61.20
57566;DHT22;63999;43.882;-0.310;2023-03-01T00:06:21;5.00;61.00
57566;DHT22;63999;43.882;-0.310;2023-03-01T00:08:47;5.00;61.00
57566;DHT22;63999;43.882;-0.310;2023-03-01T00:11:18;5.00;61.00
57566;DHT22;63999;43.882;-0.310;2023-03-01T00:13:46;5.00;61.20
57566;DHT22;63999;43.882;-0.310;2023-03-01T00:16:15;5.00;61.00
57566;DHT22;63999;43.882;-0.310;2023-03-01T00:18:41;5.00;61.20
57566;DHT22;63999;43.882;-0.310;2023-03-01T00:21:07;5.00;61.20
57566;DHT22;63999;43.882;-0.310;2023-03-01T00:23:37;5.00;61.00
57566;DHT22;63999;43.882;-0.310;2023-03-01T00:26:06;5.00;60.70
57566;DHT22;63999;43.882;-0.310;2023-03-01T00:28:33;5.00;61.20
57566;DHT22;63999;43.882;-0.310;2023-03-01T00:31:06;5.00;61.20
57566;DHT22;63999;43.882;-0.310;2023-03-01T00:33:32;5.00;61.30
57566;DHT22;63999;43.882;-0.310;2023-03-01T00:35:58;5.00;60.90
57566;DHT22;63999;43.882;-0.310;2023-03-01T00:38:24;5.00;61.00
57566;DHT22;63999;43.882;-0.310;2023-03-01T00:40:50;5.00;60.80
57566;DHT22;63999;43.882;-0.310;2023-03-01T00:43:16;4.90;60.80
57566;DHT22;63999;43.882;-0.310;2023-03-01T00:45:41;4.90;60.50
57566;DHT22;63999;43.882;-0.310;2023-03-01T00:48:07;4.90;60.60
57566;DHT22;63999;43.882;-0.310;2023-03-01T00:50:33;4.90;60.60
57566;DHT22;63999;43.882;-0.310;2023-03-01T00:52:58;4.90;60.70
57566;DHT22;63999;43.882;-0.310;2023-03-01T00:55:25;4.90;60.90
57566;DHT22;63999;43.882;-0.310;2023-03-01T00:57:51;4.90;61.00
57566;DHT22;63999;43.882;-0.310;2023-03-01T01:00:18;4.90;60.50
57566;DHT22;63999;43.882;-0.310;2023-03-01T01:02:44;4.90;61.20
57566;DHT22;63999;43.882;-0.310;2023-03-01T01:05:10;4.90;61.00
57566;DHT22;63999;43.882;-0.310;2023-03-01T01:07:36;4.90;60.90
57566;DHT22;63999;43.882;-0.310;2023-03-01T01:10:02;4.80;60.60
57566;DHT22;63999;43.882;-0.310;2023-03-01T01:12:28;4.80;60.40
57566;DHT22;63999;43.882;-0.310;2023-03-01T01:14:55;4.80;60.70
57566;DHT22;63999;43.882;-0.310;2023-03-01T01:17:20;4.80;60.60
57566;DHT22;63999;43.882;-0.310;2023-03-01T01:19:48;4.80;60.80
57566;DHT22;63999;43.882;-0.310;2023-03-01T01:22:13;4.80;61.00
57566;DHT22;63999;43.882;-0.310;2023-03-01T01:24:39;4.70;61.00
57566;DHT22;63999;43.882;-0.310;2023-03-01T01:27:05;4.70;60.80
57566;DHT22;63999;43.882;-0.310;2023-03-01T01:29:32;4.70;60.90
57566;DHT22;63999;43.882;-0.310;2023-03-01T01:31:58;4.70;61.00
57566;DHT22;63999;43.882;-0.310;2023-03-01T01:34:24;4.70;61.00
57566;DHT22;63999;43.882;-0.310;2023-03-01T01:36:53;4.70;61.00
57566;DHT22;63999;43.882;-0.310;2023-03-01T01:39:22;4.70;61.00
57566;DHT22;63999;43.882;-0.310;2023-03-01T01:41:48;4.70;60.90
57566;DHT22;63999;43.882;-0.310;2023-03-01T01:49:23;4.70;60.70
57566;DHT22;63999;43.882;-0.310;2023-03-01T01:57:32;4.70;60.30
57566;DHT22;63999;43.882;-0.310;2023-03-01T02:00:05;4.70;60.30
57566;DHT22;63999;43.882;-0.310;2023-03-01T02:02:31;4.70;60.60
57566;DHT22;63999;43.882;-0.310;2023-03-01T02:05:11;4.60;60.30
57566;DHT22;63999;43.882;-0.310;2023-03-01T02:07:39;4.60;60.50
57566;DHT22;63999;43.882;-0.310;2023-03-01T02:10:06;4.60;60.70
57566;DHT22;63999;43.882;-0.310;2023-03-01T02:12:32;4.60;60.60
57566;DHT22;63999;43.882;-0.310;2023-03-01T02:14:58;4.60;60.70
57566;DHT22;63999;43.882;-0.310;2023-03-01T02:17:24;4.60;60.50
57566;DHT22;63999;43.882;-0.310;2023-03-01T02:22:41;4.50;60.40
57566;DHT22;63999;43.882;-0.310;2023-03-01T02:25:38;4.50;60.00
57566;DHT22;63999;43.882;-0.310;2023-03-01T02:30:45;4.50;60.10
57566;DHT22;63999;43.882;-0.310;2023-03-01T02:33:31;4.50;60.20
57566;DHT22;63999;43.882;-0.310;2023-03-01T02:36:00;4.50;60.30
57566;DHT22;63999;43.882;-0.310;2023-03-01T02:38:28;4.50;60.40
57566;DHT22;63999;43.882;-0.310;2023-03-01T02:40:55;4.50;60.50
57566;DHT22;63999;43.882;-0.310;2023-03-01T02:43:26;4.50;60.40
57566;DHT22;63999;43.882;-0.310;2023-03-01T02:45:56;4.50;60.80
57566;DHT22;63999;43.882;-0.310;2023-03-01T02:48:22;4.50;60.50
57566;DHT22;63999;43.882;-0.310;2023-03-01T02:51:22;4.50;60.70
57566;DHT22;63999;43.882;-0.310;2023-03-01T02:56:24;4.50;60.40
57566;DHT22;63999;43.882;-0.310;2023-03-01T02:58:51;4.50;60.70
57566;DHT22;63999;43.882;-0.310;2023-03-01T03:01:19;4.50;60.90
57566;DHT22;63999;43.882;-0.310;2023-03-01T03:03:46;4.50;60.50
57566;DHT22;63999;43.882;-0.310;2023-03-01T03:06:12;4.50;60.70
57566;DHT22;63999;43.882;-0.310;2023-03-01T03:08:38;4.40;61.00
57566;DHT22;63999;43.882;-0.310;2023-03-01T03:11:04;4.40;60.70
57566;DHT22;63999;43.882;-0.310;2023-03-01T03:13:30;4.50;61.00
57566;DHT22;63999;43.882;-0.310;2023-03-01T03:15:56;4.50;60.90
57566;DHT22;63999;43.882;-0.310;2023-03-01T03:18:23;4.40;60.80
57566;DHT22;63999;43.882;-0.310;2023-03-01T03:20:51;4.40;61.00
57566;DHT22;63999;43.882;-0.310;2023-03-01T03:23:19;4.40;60.70
57566;DHT22;63999;43.882;-0.310;2023-03-01T03:25:48;4.40;60.60
57566;DHT22;63999;43.882;-0.310;2023-03-01T03:28:14;4.40;60.90
57566;DHT22;63999;43.882;-0.310;2023-03-01T03:30:42;4.40;60.80
57566;DHT22;63999;43.882;-0.310;2023-03-01T03:33:09;4.40;60.60
57566;DHT22;63999;43.882;-0.310;2023-03-01T03:35:41;4.40;60.50
57566;DHT22;63999;43.882;-0.310;2023-03-01T03:38:09;4.40;60.70
57566;DHT22;63999;43.882;-0.310;2023-03-01T03:40:43;4.40;60.90
57566;DHT22;63999;43.882;-0.310;2023-03-01T03:43:21;4.40;60.80
57566;DHT22;63999;43.882;-0.310;2023-03-01T03:45:49;4.40;60.70
57566;DHT22;63999;43.882;-0.310;2023-03-01T03:48:15;4.40;61.00
57566;DHT22;63999;43.882;-0.310;2023-03-01T03:50:41;4.40;60.80
57566;DHT22;63999;43.882;-0.310;2023-03-01T03:53:11;4.40;61.00
57566;DHT22;63999;43.882;-0.310;2023-03-01T03:55:37;4.40;61.00
57566;DHT22;63999;43.882;-0.310;2023-03-01T03:58:07;4.40;61.20
57566;DHT22;63999;43.882;-0.310;2023-03-01T04:00:34;4.40;61.00
57566;DHT22;63999;43.882;-0.310;2023-03-01T04:03:01;4.40;60.80
57566;DHT22;63999;43.882;-0.310;2023-03-01T04:05:28;4.40;60.80
57566;DHT22;63999;43.882;-0.310;2023-03-01T04:07:54;4.40;61.00
57566;DHT22;63999;43.882;-0.310;2023-03-01T04:10:32;4.30;60.70
57566;DHT22;63999;43.882;-0.310;2023-03-01T04:12:58;4.40;60.90
57566;DHT22;63999;43.882;-0.310;2023-03-01T04:15:25;4.30;61.10
57566;DHT22;63999;43.882;-0.310;2023-03-01T04:17:53;4.30;61.20
57566;DHT22;63999;43.882;-0.310;2023-03-01T04:20:23;4.30;61.20
57566;DHT22;63999;43.882;-0.310;2023-03-01T04:23:13;4.30;61.30
57566;DHT22;63999;43.882;-0.310;2023-03-01T04:25:45;4.30;61.30
57566;DHT22;63999;43.882;-0.310;2023-03-01T04:28:11;4.30;61.30
57566;DHT22;63999;43.882;-0.310;2023-03-01T04:30:38;4.30;61.10
57566;DHT22;63999;43.882;-0.310;2023-03-01T04:33:08;4.30;61.20
57566;DHT22;63999;43.882;-0.310;2023-03-01T04:35:35;4.20;61.10
57566;DHT22;63999;43.882;-0.310;2023-03-01T04:38:02;4.30;61.00
57566;DHT22;63999;43.882;-0.310;2023-03-01T04:40:28;4.30;61.20
57566;DHT22;63999;43.882;-0.310;2023-03-01T04:42:53;4.30;61.20
57566;DHT22;63999;43.882;-0.310;2023-03-01T04:45:19;4.20;61.20
57566;DHT22;63999;43.882;-0.310;2023-03-01T04:47:46;4.20;61.10
57566;DHT22;63999;43.882;-0.310;2023-03-01T04:50:14;4.30;61.30
57566;DHT22;63999;43.882;-0.310;2023-03-01T04:52:41;4.20;61.10
57566;DHT22;63999;43.882;-0.310;2023-03-01T04:55:07;4.20;61.30
57566;DHT22;63999;43.882;-0.310;2023-03-01T04:57:33;4.20;61.10
57566;DHT22;63999;43.882;-0.310;2023-03-01T04:59:59;4.20;61.20
57566;DHT22;63999;43.882;-0.310;2023-03-01T05:02:25;4.20;61.40
57566;DHT22;63999;43.882;-0.310;2023-03-01T05:04:51;4.20;61.40
57566;DHT22;63999;43.882;-0.310;2023-03-01T05:07:17;4.20;61.50
57566;DHT22;63999;43.882;-0.310;2023-03-01T05:09:46;4.20;61.40
57566;DHT22;63999;43.882;-0.310;2023-03-01T05:12:12;4.20;61.30
57566;DHT22;63999;43.882;-0.310;2023-03-01T05:14:39;4.20;61.10
57566;DHT22;63999;43.882;-0.310;2023-03-01T05:17:05;4.20;61.00
57566;DHT22;63999;43.882;-0.310;2023-03-01T05:19:31;4.20;61.10
57566;DHT22;63999;43.882;-0.310;2023-03-01T05:21:58;4.20;61.10
57566;DHT22;63999;43.882;-0.310;2023-03-01T05:24:28;4.20;61.00
57566;DHT22;63999;43.882;-0.310;2023-03-01T05:26:54;4.20;61.00
57566;DHT22;63999;43.882;-0.310;2023-03-01T05:29:21;4.10;60.90
57566;DHT22;63999;43.882;-0.310;2023-03-01T05:31:58;4.10;61.20
57566;DHT22;63999;43.882;-0.310;2023-03-01T05:34:31;4.10;60.90
57566;DHT22;63999;43.882;-0.310;2023-03-01T05:36:57;4.10;60.80
57566;DHT22;63999;43.882;-0.310;2023-03-01T05:39:26;4.10;61.20
57566;DHT22;63999;43.882;-0.310;2023-03-01T05:41:53;4.10;61.50
57566;DHT22;63999;43.882;-0.310;2023-03-01T05:44:20;4.10;61.00
57566;DHT22;63999;43.882;-0.310;2023-03-01T05:46:46;4.10;61.40
57566;DHT22;63999;43.882;-0.310;2023-03-01T05:49:14;4.10;61.10
57566;DHT22;63999;43.882;-0.310;2023-03-01T05:51:41;4.10;61.00
57566;DHT22;63999;43.882;-0.310;2023-03-01T05:54:07;4.10;61.10
57566;DHT22;63999;43.882;-0.310;2023-03-01T05:56:34;4.10;60.60
57566;DHT22;63999;43.882;-0.310;2023-03-01T05:59:01;4.10;60.90
57566;DHT22;63999;43.882;-0.310;2023-03-01T06:01:27;4.00;60.20
57566;DHT22;63999;43.882;-0.310;2023-03-01T06:03:53;4.00;60.70
57566;DHT22;63999;43.882;-0.310;2023-03-01T06:06:19;4.00;61.10
57566;DHT22;63999;43.882;-0.310;2023-03-01T06:08:45;4.00;61.20
57566;DHT22;63999;43.882;-0.310;2023-03-01T06:11:11;4.00;60.90
57566;DHT22;63999;43.882;-0.310;2023-03-01T06:13:36;4.00;61.30
57566;DHT22;63999;43.882;-0.310;2023-03-01T06:16:05;4.00;61.20
57566;DHT22;63999;43.882;-0.310;2023-03-01T06:18:32;4.00;61.10
57566;DHT22;63999;43.882;-0.310;2023-03-01T06:20:58;4.00;60.80
57566;DHT22;63999;43.882;-0.310;2023-03-01T06:23:24;4.00;61.10
57566;DHT22;63999;43.882;-0.310;2023-03-01T06:25:50;4.00;60.90
57566;DHT22;63999;43.882;-0.310;2023-03-01T06:28:16;4.00;61.20
57566;DHT22;63999;43.882;-0.310;2023-03-01T06:30:42;4.00;61.00
57566;DHT22;63999;43.882;-0.310;2023-03-01T06:33:08;4.00;61.10
57566;DHT22;63999;43.882;-0.310;2023-03-01T06:35:34;4.00;61.30
57566;DHT22;63999;43.882;-0.310;2023-03-01T06:38:01;3.90;61.20
57566;DHT22;63999;43.882;-0.310;2023-03-01T06:40:28;3.90;61.30
57566;DHT22;63999;43.882;-0.310;2023-03-01T06:42:54;3.90;61.30
57566;DHT22;63999;43.882;-0.310;2023-03-01T06:45:20;3.90;61.30
57566;DHT22;63999;43.882;-0.310;2023-03-01T06:47:46;3.90;61.30
57566;DHT22;63999;43.882;-0.310;2023-03-01T06:50:13;3.90;61.60
57566;DHT22;63999;43.882;-0.310;2023-03-01T06:52:39;3.90;61.30
57566;DHT22;63999;43.882;-0.310;2023-03-01T06:55:06;3.90;61.30
57566;DHT22;63999;43.882;-0.310;2023-03-01T06:57:32;3.90;61.10
57566;DHT22;63999;43.882;-0.310;2023-03-01T06:59:58;3.90;61.20
57566;DHT22;63999;43.882;-0.310;2023-03-01T07:02:24;3.90;61.00
57566;DHT22;63999;43.882;-0.310;2023-03-01T07:04:51;3.90;61.00
57566;DHT22;63999;43.882;-0.310;2023-03-01T07:07:17;3.90;61.10
57566;DHT22;63999;43.882;-0.310;2023-03-01T07:09:48;3.90;60.90
57566;DHT22;63999;43.882;-0.310;2023-03-01T07:12:14;3.90;61.00
57566;DHT22;63999;43.882;-0.310;2023-03-01T07:14:40;3.90;61.20
57566;DHT22;63999;43.882;-0.310;2023-03-01T07:17:06;3.80;60.50
57566;DHT22;63999;43.882;-0.310;2023-03-01T07:19:32;3.90;61.10
57566;DHT22;63999;43.882;-0.310;2023-03-01T07:21:58;3.80;60.80
57566;DHT22;63999;43.882;-0.310;2023-03-01T07:24:24;3.80;60.90
57566;DHT22;63999;43.882;-0.310;2023-03-01T07:26:51;3.80;61.10
57566;DHT22;63999;43.882;-0.310;2023-03-01T07:29:17;3.80;60.90
57566;DHT22;63999;43.882;-0.310;2023-03-01T07:31:44;3.80;61.00
57566;DHT22;63999;43.882;-0.310;2023-03-01T07:34:10;3.80;60.80
57566;DHT22;63999;43.882;-0.310;2023-03-01T07:36:37;3.80;61.10
57566;DHT22;63999;43.882;-0.310;2023-03-01T07:39:03;3.80;61.00
57566;DHT22;63999;43.882;-0.310;2023-03-01T07:41:29;3.80;60.70
57566;DHT22;63999;43.882;-0.310;2023-03-01T07:43:55;3.80;60.90
57566;DHT22;63999;43.882;-0.310;2023-03-01T07:46:21;3.80;60.70
57566;DHT22;63999;43.882;-0.310;2023-03-01T07:48:47;3.80;60.80
57566;DHT22;63999;43.882;-0.310;2023-03-01T07:51:13;3.80;60.50
57566;DHT22;63999;43.882;-0.310;2023-03-01T07:53:39;3.80;60.70
57566;DHT22;63999;43.882;-0.310;2023-03-01T07:56:10;3.80;60.90
57566;DHT22;63999;43.882;-0.310;2023-03-01T07:58:37;3.80;60.90
57566;DHT22;63999;43.882;-0.310;2023-03-01T08:01:04;3.80;61.00
57566;DHT22;63999;43.882;-0.310;2023-03-01T08:03:30;3.80;61.20
57566;DHT22;63999;43.882;-0.310;2023-03-01T08:05:59;3.90;61.10
57566;DHT22;63999;43.882;-0.310;2023-03-01T08:08:25;3.90;61.20
57566;DHT22;63999;43.882;-0.310;2023-03-01T08:10:51;3.90;61.30
57566;DHT22;63999;43.882;-0.310;2023-03-01T08:13:17;3.90;61.60
57566;DHT22;63999;43.882;-0.310;2023-03-01T08:15:48;3.90;61.60
57566;DHT22;63999;43.882;-0.310;2023-03-01T08:18:15;3.90;61.80
57566;DHT22;63999;43.882;-0.310;2023-03-01T08:20:42;4.00;61.90
57566;DHT22;63999;43.882;-0.310;2023-03-01T08:23:08;4.00;62.00
57566;DHT22;63999;43.882;-0.310;2023-03-01T08:25:34;4.00;61.90
57566;DHT22;63999;43.882;-0.310;2023-03-01T08:27:59;4.00;62.00
57566;DHT22;63999;43.882;-0.310;2023-03-01T08:30:26;4.00;62.10
57566;DHT22;63999;43.882;-0.310;2023-03-01T08:32:51;4.00;62.00
57566;DHT22;63999;43.882;-0.310;2023-03-01T08:35:18;4.00;61.90
57566;DHT22;63999;43.882;-0.310;2023-03-01T08:37:44;4.10;62.10
57566;DHT22;63999;43.882;-0.310;2023-03-01T08:40:10;4.10;62.20
57566;DHT22;63999;43.882;-0.310;2023-03-01T08:42:42;4.10;62.40
57566;DHT22;63999;43.882;-0.310;2023-03-01T08:45:12;4.20;62.30
57566;DHT22;63999;43.882;-0.310;2023-03-01T08:47:39;4.20;62.50
57566;DHT22;63999;43.882;-0.310;2023-03-01T08:50:06;4.20;62.50
57566;DHT22;63999;43.882;-0.310;2023-03-01T08:52:32;4.20;62.50
57566;DHT22;63999;43.882;-0.310;2023-03-01T08:54:58;4.30;62.40
57566;DHT22;63999;43.882;-0.310;2023-03-01T08:57:26;4.20;62.30
57566;DHT22;63999;43.882;-0.310;2023-03-01T08:59:52;4.30;62.20
57566;DHT22;63999;43.882;-0.310;2023-03-01T09:02:18;4.30;62.00
57566;DHT22;63999;43.882;-0.310;2023-03-01T09:04:44;4.30;62.10
57566;DHT22;63999;43.882;-0.310;2023-03-01T09:07:10;4.30;62.20
57566;DHT22;63999;43.882;-0.310;2023-03-01T09:09:37;4.30;62.10
57566;DHT22;63999;43.882;-0.310;2023-03-01T09:12:03;4.30;62.20
57566;DHT22;63999;43.882;-0.310;2023-03-01T09:14:29;4.40;62.20
57566;DHT22;63999;43.882;-0.310;2023-03-01T09:16:55;4.40;62.00
57566;DHT22;63999;43.882;-0.310;2023-03-01T09:19:21;4.40;61.70
57566;DHT22;63999;43.882;-0.310;2023-03-01T09:21:47;4.40;62.10
57566;DHT22;63999;43.882;-0.310;2023-03-01T09:24:24;4.40;62.00
57566;DHT22;63999;43.882;-0.310;2023-03-01T09:26:53;4.40;62.20
57566;DHT22;63999;43.882;-0.310;2023-03-01T09:29:39;4.50;62.10
57566;DHT22;63999;43.882;-0.310;2023-03-01T09:32:05;4.50;62.00
57566;DHT22;63999;43.882;-0.310;2023-03-01T09:34:32;4.50;62.00
57566;DHT22;63999;43.882;-0.310;2023-03-01T09:37:18;4.50;62.00
57566;DHT22;63999;43.882;-0.310;2023-03-01T09:39:43;4.50;61.90
57566;DHT22;63999;43.882;-0.310;2023-03-01T09:42:12;4.50;62.00
57566;DHT22;63999;43.882;-0.310;2023-03-01T09:45:04;4.60;62.10
57566;DHT22;63999;43.882;-0.310;2023-03-01T09:47:31;4.60;62.00
57566;DHT22;63999;43.882;-0.310;2023-03-01T09:50:16;4.60;61.40
57566;DHT22;63999;43.882;-0.310;2023-03-01T09:55:46;4.70;61.70
57566;DHT22;63999;43.882;-0.310;2023-03-01T09:58:47;4.70;61.40
57566;DHT22;63999;43.882;-0.310;2023-03-01T10:01:30;4.70;61.40
57566;DHT22;63999;43.882;-0.310;2023-03-01T10:09:42;4.90;60.80
57566;DHT22;63999;43.882;-0.310;2023-03-01T10:12:18;4.90;61.00
57566;DHT22;63999;43.882;-0.310;2023-03-01T10:14:59;5.00;61.20
57566;DHT22;63999;43.882;-0.310;2023-03-01T10:17:44;5.00;61.10
57566;DHT22;63999;43.882;-0.310;2023-03-01T10:20:41;5.00;61.20
57566;DHT22;63999;43.882;-0.310;2023-03-01T10:23:08;5.10;61.10
57566;DHT22;63999;43.882;-0.310;2023-03-01T10:31:05;5.20;61.20
57566;DHT22;63999;43.882;-0.310;2023-03-01T10:33:38;5.30;61.50
57566;DHT22;63999;43.882;-0.310;2023-03-01T10:36:07;5.30;60.80
57566;DHT22;63999;43.882;-0.310;2023-03-01T10:38:55;5.30;60.70
57566;DHT22;63999;43.882;-0.310;2023-03-01T10:41:24;5.30;60.60
57566;DHT22;63999;43.882;-0.310;2023-03-01T10:43:55;5.40;60.50
57566;DHT22;63999;43.882;-0.310;2023-03-01T10:46:34;5.30;60.50
57566;DHT22;63999;43.882;-0.310;2023-03-01T10:49:20;5.40;60.70
57566;DHT22;63999;43.882;-0.310;2023-03-01T10:51:49;5.50;60.50
57566;DHT22;63999;43.882;-0.310;2023-03-01T10:54:25;5.50;60.70
57566;DHT22;63999;43.882;-0.310;2023-03-01T10:57:01;5.50;60.90
57566;DHT22;63999;43.882;-0.310;2023-03-01T10:59:36;5.50;60.50
57566;DHT22;63999;43.882;-0.310;2023-03-01T11:02:26;5.50;60.70
57566;DHT22;63999;43.882;-0.310;2023-03-01T11:05:03;5.50;61.90
57566;DHT22;63999;43.882;-0.310;2023-03-01T11:07:53;5.60;60.80
57566;DHT22;63999;43.882;-0.310;2023-03-01T11:10:24;5.50;60.50
57566;DHT22;63999;43.882;-0.310;2023-03-01T11:12:52;5.60;60.50
57566;DHT22;63999;43.882;-0.310;2023-03-01T11:15:36;5.60;61.60
57566;DHT22;63999;43.882;-0.310;2023-03-01T11:18:02;5.60;60.50
57566;DHT22;63999;43.882;-0.310;2023-03-01T11:20:35;5.60;60.20
57566;DHT22;63999;43.882;-0.310;2023-03-01T11:23:10;5.70;61.30
57566;DHT22;63999;43.882;-0.310;2023-03-01T11:25:39;5.70;61.30
57566;DHT22;63999;43.882;-0.310;2023-03-01T11:28:10;5.70;61.40
57566;DHT22;63999;43.882;-0.310;2023-03-01T11:36:01;5.70;60.80
57566;DHT22;63999;43.882;-0.310;2023-03-01T11:38:32;5.70;60.80
57566;DHT22;63999;43.882;-0.310;2023-03-01T11:43:52;5.70;61.00
57566;DHT22;63999;43.882;-0.310;2023-03-01T11:54:21;5.70;61.10
57566;DHT22;63999;43.882;-0.310;2023-03-01T11:56:52;5.70;61.00
57566;DHT22;63999;43.882;-0.310;2023-03-01T12:08:08;5.80;61.00
57566;DHT22;63999;43.882;-0.310;2023-03-01T12:16:58;5.80;61.20
57566;DHT22;63999;43.882;-0.310;2023-03-01T12:22:28;5.90;61.00
57566;DHT22;63999;43.882;-0.310;2023-03-01T12:25:06;5.90;61.30
57566;DHT22;63999;43.882;-0.310;2023-03-01T12:36:25;5.90;60.90
57566;DHT22;63999;43.882;-0.310;2023-03-01T12:39:19;5.90;60.70
57566;DHT22;63999;43.882;-0.310;2023-03-01T12:42:24;5.90;60.80
57566;DHT22;63999;43.882;-0.310;2023-03-01T12:50:42;6.00;60.70
57566;DHT22;63999;43.882;-0.310;2023-03-01T12:53:35;6.00;60.80
57566;DHT22;63999;43.882;-0.310;2023-03-01T12:56:06;6.10;60.70
57566;DHT22;63999;43.882;-0.310;2023-03-01T12:58:36;6.00;60.80
57566;DHT22;63999;43.882;-0.310;2023-03-01T13:01:11;6.10;61.00
57566;DHT22;63999;43.882;-0.310;2023-03-01T13:06:50;6.10;61.00
57566;DHT22;63999;43.882;-0.310;2023-03-01T13:09:44;6.10;61.00
57566;DHT22;63999;43.882;-0.310;2023-03-01T13:17:51;6.20;61.00
57566;DHT22;63999;43.882;-0.310;2023-03-01T13:20:48;6.20;61.10
57566;DHT22;63999;43.882;-0.310;2023-03-01T13:30:58;6.20;61.50
57566;DHT22;63999;43.882;-0.310;2023-03-01T13:35:54;6.20;61.60
57566;DHT22;63999;43.882;-0.310;2023-03-01T13:38:48;6.30;61.60
57566;DHT22;63999;43.882;-0.310;2023-03-01T13:46:56;6.30;61.10
57566;DHT22;63999;43.882;-0.310;2023-03-01T13:49:58;6.30;61.30
57566;DHT22;63999;43.882;-0.310;2023-03-01T13:52:40;6.30;60.80
57566;DHT22;63999;43.882;-0.310;2023-03-01T13:55:16;6.30;61.00
57566;DHT22;63999;43.882;-0.310;2023-03-01T13:57:46;6.40;61.30
57566;DHT22;63999;43.882;-0.310;2023-03-01T14:00:34;6.40;61.40
57566;DHT22;63999;43.882;-0.310;2023-03-01T14:03:10;6.40;60.80
57566;DHT22;63999;43.882;-0.310;2023-03-01T14:05:38;6.40;60.70
57566;DHT22;63999;43.882;-0.310;2023-03-01T14:08:14;6.50;60.70
57566;DHT22;63999;43.882;-0.310;2023-03-01T14:16:30;6.50;61.00
57566;DHT22;63999;43.882;-0.310;2023-03-01T14:19:27;6.50;60.70
57566;DHT22;63999;43.882;-0.310;2023-03-01T14:22:05;6.50;60.80
57566;DHT22;63999;43.882;-0.310;2023-03-01T14:24:40;6.60;60.30
57566;DHT22;63999;43.882;-0.310;2023-03-01T14:27:12;6.60;60.50
57566;DHT22;63999;43.882;-0.310;2023-03-01T14:29:39;6.70;60.40
57566;DHT22;63999;43.882;-0.310;2023-03-01T14:32:29;6.70;60.30
57566;DHT22;63999;43.882;-0.310;2023-03-01T14:34:56;6.70;60.40
57566;DHT22;63999;43.882;-0.310;2023-03-01T14:37:28;6.70;60.40
57566;DHT22;63999;43.882;-0.310;2023-03-01T14:39:55;6.60;60.50
57566;DHT22;63999;43.882;-0.310;2023-03-01T14:42:24;6.70;60.50
57566;DHT22;63999;43.882;-0.310;2023-03-01T14:44:53;6.70;60.60
57566;DHT22;63999;43.882;-0.310;2023-03-01T14:47:29;6.70;60.20
57566;DHT22;63999;43.882;-0.310;2023-03-01T14:50:20;6.70;60.10
57566;DHT22;63999;43.882;-0.310;2023-03-01T14:52:49;6.80;60.40
57566;DHT22;63999;43.882;-0.310;2023-03-01T14:55:21;6.80;60.50
57566;DHT22;63999;43.882;-0.310;2023-03-01T14:57:51;6.80;60.50
57566;DHT22;63999;43.882;-0.310;2023-03-01T15:00:26;6.80;60.20
57566;DHT22;63999;43.882;-0.310;2023-03-01T15:02:54;6.80;60.50
57566;DHT22;63999;43.882;-0.310;2023-03-01T15:05:31;6.90;60.20
57566;DHT22;63999;43.882;-0.310;2023-03-01T15:07:58;6.90;59.90
57566;DHT22;63999;43.882;-0.310;2023-03-01T15:10:33;6.90;60.00
57566;DHT22;63999;43.882;-0.310;2023-03-01T15:13:21;6.90;60.30
57566;DHT22;63999;43.882;-0.310;2023-03-01T15:15:49;6.90;60.50
57566;DHT22;63999;43.882;-0.310;2023-03-01T15:18:22;6.90;60.50
57566;DHT22;63999;43.882;-0.310;2023-03-01T15:20:52;7.00;60.60
57566;DHT22;63999;43.882;-0.310;2023-03-01T15:23:27;7.00;61.00
57566;DHT22;63999;43.882;-0.310;2023-03-01T15:25:54;7.00;61.20
57566;DHT22;63999;43.882;-0.310;2023-03-01T15:28:30;7.10;61.30
57566;DHT22;63999;43.882;-0.310;2023-03-01T15:31:16;7.10;61.50
57566;DHT22;63999;43.882;-0.310;2023-03-01T15:33:50;7.10;61.80
57566;DHT22;63999;43.882;-0.310;2023-03-01T15:36:43;7.10;61.30
57566;DHT22;63999;43.882;-0.310;2023-03-01T15:41:58;7.20;61.40
57566;DHT22;63999;43.882;-0.310;2023-03-01T15:44:30;7.20;62.30
57566;DHT22;63999;43.882;-0.310;2023-03-01T15:46:56;7.20;62.50
57566;DHT22;63999;43.882;-0.310;2023-03-01T15:49:30;7.20;62.10
57566;DHT22;63999;43.882;-0.310;2023-03-01T15:51:56;7.20;62.30
57566;DHT22;63999;43.882;-0.310;2023-03-01T15:54:25;7.20;62.80
57566;DHT22;63999;43.882;-0.310;2023-03-01T15:56:52;7.20;63.10
57566;DHT22;63999;43.882;-0.310;2023-03-01T15:59:18;7.20;63.10
57566;DHT22;63999;43.882;-0.310;2023-03-01T16:01:45;7.20;63.20
57566;DHT22;63999;43.882;-0.310;2023-03-01T16:04:13;7.30;63.30
57566;DHT22;63999;43.882;-0.310;2023-03-01T16:06:50;7.30;62.80
57566;DHT22;63999;43.882;-0.310;2023-03-01T16:09:24;7.30;63.40
57566;DHT22;63999;43.882;-0.310;2023-03-01T16:11:51;7.30;62.90
57566;DHT22;63999;43.882;-0.310;2023-03-01T16:14:17;7.20;62.10
57566;DHT22;63999;43.882;-0.310;2023-03-01T16:16:45;7.20;62.50
57566;DHT22;63999;43.882;-0.310;2023-03-01T16:19:11;7.20;62.60
57566;DHT22;63999;43.882;-0.310;2023-03-01T16:21:38;7.20;62.90
57566;DHT22;63999;43.882;-0.310;2023-03-01T16:24:04;7.20;62.90
57566;DHT22;63999;43.882;-0.310;2023-03-01T16:26:30;7.20;62.60
57566;DHT22;63999;43.882;-0.310;2023-03-01T16:28:56;7.30;63.60
57566;DHT22;63999;43.882;-0.310;2023-03-01T16:31:23;7.30;64.10
57566;DHT22;63999;43.882;-0.310;2023-03-01T16:33:53;7.30;63.30
57566;DHT22;63999;43.882;-0.310;2023-03-01T16:36:20;7.40;63.50
57566;DHT22;63999;43.882;-0.310;2023-03-01T16:38:49;7.30;63.60
57566;DHT22;63999;43.882;-0.310;2023-03-01T16:41:17;7.40;62.60
57566;DHT22;63999;43.882;-0.310;2023-03-01T16:43:44;7.30;62.50
57566;DHT22;63999;43.882;-0.310;2023-03-01T16:46:12;7.30;62.20
57566;DHT22;63999;43.882;-0.310;2023-03-01T16:48:38;7.30;63.20
57566;DHT22;63999;43.882;-0.310;2023-03-01T16:51:06;7.40;63.10
57566;DHT22;63999;43.882;-0.310;2023-03-01T16:53:37;7.40;63.10
57566;DHT22;63999;43.882;-0.310;2023-03-01T16:56:05;7.40;63.70
57566;DHT22;63999;43.882;-0.310;2023-03-01T16:58:34;7.40;63.30
57566;DHT22;63999;43.882;-0.310;2023-03-01T17:01:11;7.40;63.70
57566;DHT22;63999;43.882;-0.310;2023-03-01T17:03:38;7.50;62.80
57566;DHT22;63999;43.882;-0.310;2023-03-01T17:06:10;7.40;63.40
57566;DHT22;63999;43.882;-0.310;2023-03-01T17:08:37;7.40;63.40
57566;DHT22;63999;43.882;-0.310;2023-03-01T17:11:15;7.40;63.30
57566;DHT22;63999;43.882;-0.310;2023-03-01T17:13:42;7.40;63.70
57566;DHT22;63999;43.882;-0.310;2023-03-01T17:16:10;7.40;63.00
57566;DHT22;63999;43.882;-0.310;2023-03-01T17:18:37;7.40;63.20
57566;DHT22;63999;43.882;-0.310;2023-03-01T17:21:04;7.40;63.00
57566;DHT22;63999;43.882;-0.310;2023-03-01T17:23:32;7.40;63.80
57566;DHT22;63999;43.882;-0.310;2023-03-01T17:25:58;7.40;63.80
57566;DHT22;63999;43.882;-0.310;2023-03-01T17:28:26;7.50;63.50
57566;DHT22;63999;43.882;-0.310;2023-03-01T17:30:53;7.50;64.10
57566;DHT22;63999;43.882;-0.310;2023-03-01T17:33:19;7.50;64.30
57566;DHT22;63999;43.882;-0.310;2023-03-01T17:35:45;7.50;64.70
57566;DHT22;63999;43.882;-0.310;2023-03-01T17:38:15;7.50;64.90
57566;DHT22;63999;43.882;-0.310;2023-03-01T17:40:43;7.50;64.80
57566;DHT22;63999;43.882;-0.310;2023-03-01T17:43:13;7.50;65.20